Terminal Aerodrome Forecast
Issued by NWS Corpus Christi, TX

Home | Current Version | Previous Version | Text Only | Print | Product List | Glossary On
Versions: 1 2 3 4 5 6 7 8 9 10 11 12 13 14 15 16 17
000
FTUS44 KCRP 280529
TAFCRP
TAF
KCRP 280529Z 2806/2906 08007KT P6SM SCT020 BKN250
      TEMPO 2806/2808 BKN020
     FM280800 05004KT P6SM BKN020
     FM281200 VRB03KT P6SM VCSH BKN025 OVC030
     FM281700 07008KT P6SM VCTS BKN030CB PROB30 2817/2820 5SM TSRA
      OVC030CB
     FM282000 09014G20KT P6SM SCT035 BKN250
     FM290200 12008KT P6SM SCT025=

USA.gov is the U.S. government's official web portal to all federal, state and local government web resources and services.